Time,TemperatureF,DewpointF,PressureIn,WindDirection,WindDirectionDegrees,WindSpeedMPH,WindSpeedGustMPH,Humidity,HourlyPrecipIn,Conditions,Clouds,dailyrainin,SoftwareType,DateUTC
2013-03-12 00:02:00,37.0,35.0,29.94,WSW,249,2.0,5.0,92,0.00,,,1.21,,2013-03-12 04:02:00,
2013-03-12 00:13:00,37.0,35.0,29.94,WSW,249,2.0,5.0,92,0.00,,,1.21,,2013-03-12 04:13:00,
2013-03-12 00:22:00,37.0,35.0,29.94,West,266,3.0,7.0,92,0.00,,,1.21,,2013-03-12 04:22:00,
2013-03-12 00:32:00,37.0,34.0,29.95,West,273,6.0,7.0,90,0.00,,,1.20,,2013-03-12 04:32:00,
2013-03-12 00:43:00,37.0,34.0,29.95,West,273,6.0,7.0,90,0.00,,,1.20,,2013-03-12 04:43:00,
2013-03-12 00:52:00,36.0,33.0,29.95,West,271,5.0,7.0,90,0.00,,,1.19,,2013-03-12 04:52:00,
2013-03-12 01:02:00,37.0,34.0,29.96,West,271,6.0,10.0,90,0.00,,,1.19,,2013-03-12 05:02:00,
2013-03-12 01:12:00,37.0,34.0,29.96,West,271,6.0,10.0,90,0.00,,,1.19,,2013-03-12 05:12:00,
2013-03-12 01:22:00,37.0,34.0,29.96,WNW,284,2.0,5.0,90,0.00,,,1.16,,2013-03-12 05:22:00,
2013-03-12 01:32:00,36.0,33.0,29.96,West,268,6.0,9.0,90,0.00,,,1.15,,2013-03-12 05:32:00,
2013-03-12 01:42:00,36.0,33.0,29.96,West,268,6.0,9.0,90,0.00,,,1.15,,2013-03-12 05:42:00,
2013-03-12 01:52:00,36.0,33.0,29.97,WSW,248,5.0,8.0,90,0.00,,,1.12,,2013-03-12 05:52:00,
2013-03-12 02:02:00,36.0,33.0,29.97,West,269,2.0,5.0,90,0.00,,,1.11,,2013-03-12 06:02:00,
2013-03-12 02:12:00,36.0,33.0,29.97,West,269,2.0,5.0,90,0.00,,,1.11,,2013-03-12 06:12:00,
2013-03-12 02:22:00,36.0,34.0,29.97,West,276,5.0,8.0,92,0.00,,,1.09,,2013-03-12 06:22:00,
2013-03-12 02:32:00,35.0,33.0,29.97,WSW,239,3.0,6.0,92,0.00,,,1.08,,2013-03-12 06:32:00,
2013-03-12 02:42:00,35.0,33.0,29.97,WSW,239,3.0,6.0,92,0.00,,,1.08,,2013-03-12 06:42:00,
2013-03-12 02:52:00,35.0,33.0,29.98,West,265,5.0,8.0,92,0.00,,,1.05,,2013-03-12 06:52:00,
2013-03-12 03:02:00,36.0,34.0,29.98,West,270,3.0,5.0,92,0.00,,,1.04,,2013-03-12 07:02:00,
2013-03-12 03:12:00,36.0,34.0,29.98,West,270,3.0,5.0,92,0.00,,,1.04,,2013-03-12 07:12:00,
2013-03-12 03:22:00,35.0,33.0,29.98,WNW,288,0.0,5.0,93,0.00,,,1.00,,2013-03-12 07:22:00,
2013-03-12 03:32:00,35.0,33.0,29.98,WSW,237,2.0,2.0,93,0.00,,,0.99,,2013-03-12 07:32:00,
2013-03-12 03:42:00,35.0,33.0,29.98,WSW,237,2.0,2.0,93,0.00,,,0.99,,2013-03-12 07:42:00,
2013-03-12 03:52:00,35.0,33.0,29.98,West,260,2.0,5.0,93,0.00,,,0.95,,2013-03-12 07:52:00,
2013-03-12 04:02:00,35.0,33.0,29.99,NNW,338,2.0,6.0,92,0.00,,,0.93,,2013-03-12 08:02:00,
2013-03-12 04:13:00,35.0,33.0,29.99,NNW,338,2.0,6.0,92,0.00,,,0.93,,2013-03-12 08:13:00,
2013-03-12 04:22:00,35.0,33.0,29.99,West,278,2.0,9.0,92,0.00,,,0.91,,2013-03-12 08:22:00,
2013-03-12 04:33:00,35.0,33.0,29.99,WNW,291,0.0,0.0,92,0.00,,,0.90,,2013-03-12 08:33:00,
2013-03-12 04:42:00,35.0,33.0,29.99,WNW,291,0.0,0.0,92,0.00,,,0.90,,2013-03-12 08:42:00,
2013-03-12 04:52:00,34.0,31.0,29.98,WNW,287,2.0,6.0,90,0.00,,,0.89,,2013-03-12 08:52:00,
2013-03-12 05:03:00,35.0,32.0,29.98,West,275,2.0,7.0,90,0.00,,,0.86,,2013-03-12 09:03:00,
2013-03-12 05:12:00,35.0,32.0,29.98,West,275,2.0,7.0,90,0.00,,,0.86,,2013-03-12 09:12:00,
2013-03-12 05:22:00,34.0,31.0,29.98,West,271,1.0,6.0,90,0.00,,,0.82,,2013-03-12 09:22:00,
2013-03-12 05:32:00,35.0,32.0,29.98,West,268,0.0,0.0,90,0.00,,,0.79,,2013-03-12 09:32:00,
2013-03-12 05:42:00,35.0,32.0,29.98,West,268,0.0,0.0,90,0.00,,,0.79,,2013-03-12 09:42:00,
2013-03-12 05:52:00,34.0,31.0,29.99,West,272,3.0,6.0,90,0.00,,,0.74,,2013-03-12 09:52:00,
2013-03-12 06:02:00,35.0,32.0,30.00,WSW,244,0.0,0.0,90,0.00,,,0.72,,2013-03-12 10:02:00,
2013-03-12 06:12:00,35.0,32.0,30.00,WSW,244,0.0,0.0,90,0.00,,,0.72,,2013-03-12 10:12:00,
2013-03-12 06:22:00,34.0,31.0,30.00,WSW,244,0.0,5.0,90,0.00,,,0.67,,2013-03-12 10:22:00,
2013-03-12 06:32:00,34.0,31.0,30.01,WSW,254,0.0,0.0,90,0.00,,,0.65,,2013-03-12 10:32:00,
2013-03-12 06:42:00,34.0,31.0,30.01,WSW,254,0.0,0.0,90,0.00,,,0.65,,2013-03-12 10:42:00,
2013-03-12 06:53:00,34.0,31.0,30.01,West,265,1.0,5.0,90,0.00,,,0.59,,2013-03-12 10:53:00,
2013-03-12 07:02:00,34.0,31.0,30.01,West,268,1.0,3.0,88,0.00,,,0.56,,2013-03-12 11:02:00,
2013-03-12 07:12:00,34.0,31.0,30.01,West,268,1.0,3.0,88,0.00,,,0.56,,2013-03-12 11:12:00,
2013-03-12 07:22:00,34.0,31.0,30.01,WNW,301,0.0,0.0,88,0.00,,,0.53,,2013-03-12 11:22:00,
2013-03-12 07:32:00,33.0,30.0,30.02,WSW,247,2.0,5.0,88,0.00,,,0.51,,2013-03-12 11:32:00,
2013-03-12 07:42:00,33.0,30.0,30.02,WSW,247,2.0,5.0,88,0.00,,,0.51,,2013-03-12 11:42:00,
2013-03-12 07:52:00,33.0,30.0,30.02,West,275,0.0,3.0,88,0.00,,,0.48,,2013-03-12 11:52:00,
2013-03-12 08:02:00,34.0,31.0,30.03,West,261,1.0,0.0,88,0.00,,,0.47,,2013-03-12 12:02:00,
2013-03-12 08:12:00,34.0,31.0,30.03,West,261,1.0,0.0,88,0.00,,,0.47,,2013-03-12 12:12:00,
2013-03-12 08:22:00,34.0,31.0,30.04,WNW,294,2.0,5.0,87,0.00,,,0.45,,2013-03-12 12:22:00,
2013-03-12 08:32:00,34.0,31.0,30.03,West,264,0.0,3.0,87,0.00,,,0.43,,2013-03-12 12:32:00,
2013-03-12 08:42:00,34.0,31.0,30.03,West,264,0.0,3.0,87,0.00,,,0.43,,2013-03-12 12:42:00,
2013-03-12 08:52:00,34.0,31.0,30.04,WNW,285,1.0,0.0,88,0.00,,,0.41,,2013-03-12 12:52:00,
2013-03-12 09:02:00,34.0,31.0,30.04,WSW,247,0.0,0.0,88,0.00,,,0.39,,2013-03-12 13:02:00,
2013-03-12 09:12:00,34.0,31.0,30.04,WSW,247,0.0,0.0,88,0.00,,,0.39,,2013-03-12 13:12:00,
2013-03-12 09:22:00,34.0,31.0,30.06,West,264,2.0,6.0,88,0.00,,,0.37,,2013-03-12 13:22:00,
2013-03-12 09:32:00,34.0,31.0,30.06,West,260,2.0,6.0,87,0.00,,,0.37,,2013-03-12 13:32:00,
2013-03-12 09:42:00,34.0,31.0,30.06,West,260,2.0,6.0,87,0.00,,,0.37,,2013-03-12 13:42:00,
2013-03-12 09:52:00,34.0,31.0,30.06,WSW,247,0.0,0.0,87,0.00,,,0.37,,2013-03-12 13:52:00,
2013-03-12 10:02:00,35.0,32.0,30.05,West,260,3.0,6.0,87,0.00,,,0.37,,2013-03-12 14:02:00,
2013-03-12 10:12:00,35.0,32.0,30.05,West,260,3.0,6.0,87,0.00,,,0.37,,2013-03-12 14:12:00,
2013-03-12 10:22:00,35.0,32.0,30.07,WSW,248,0.0,3.0,87,0.00,,,0.37,,2013-03-12 14:22:00,
2013-03-12 10:33:00,35.0,32.0,30.07,WSW,248,0.0,7.0,87,0.00,,,0.37,,2013-03-12 14:33:00,
2013-03-12 10:42:00,35.0,32.0,30.07,WSW,248,0.0,7.0,87,0.00,,,0.37,,2013-03-12 14:42:00,
2013-03-12 10:53:00,35.0,32.0,30.07,WNW,287,0.0,0.0,87,0.00,,,0.37,,2013-03-12 14:53:00,
2013-03-12 11:02:00,35.0,31.0,30.07,West,262,0.0,3.0,85,0.00,,,0.37,,2013-03-12 15:02:00,
2013-03-12 11:12:00,35.0,31.0,30.07,West,262,0.0,3.0,85,0.00,,,0.37,,2013-03-12 15:12:00,
2013-03-12 11:22:00,36.0,32.0,30.07,West,260,2.0,5.0,84,0.00,,,0.37,,2013-03-12 15:22:00,
2013-03-12 11:32:00,36.0,32.0,30.07,WSW,251,5.0,5.0,84,0.00,,,0.37,,2013-03-12 15:32:00,
2013-03-12 11:42:00,36.0,32.0,30.07,WSW,251,5.0,5.0,84,0.00,,,0.37,,2013-03-12 15:42:00,
2013-03-12 11:53:00,36.0,31.0,30.07,West,281,2.0,7.0,81,0.00,,,0.35,,2013-03-12 15:53:00,
2013-03-12 12:02:00,36.0,31.0,30.08,West,275,3.0,7.0,81,0.00,,,0.35,,2013-03-12 16:02:00,
2013-03-12 12:12:00,36.0,31.0,30.08,West,275,3.0,7.0,81,0.00,,,0.35,,2013-03-12 16:12:00,
2013-03-12 12:22:00,37.0,31.0,30.09,West,271,5.0,8.0,79,0.00,,,0.31,,2013-03-12 16:22:00,
2013-03-12 12:33:00,37.0,31.0,30.09,West,263,3.0,7.0,78,0.00,,,0.29,,2013-03-12 16:33:00,
2013-03-12 12:43:00,37.0,31.0,30.09,West,263,3.0,7.0,78,0.00,,,0.29,,2013-03-12 16:43:00,
2013-03-12 12:53:00,37.0,31.0,30.09,West,275,3.0,9.0,78,0.00,,,0.25,,2013-03-12 16:53:00,
2013-03-12 13:03:00,37.0,30.0,30.10,West,277,6.0,7.0,76,0.00,,,0.23,,2013-03-12 17:03:00,
2013-03-12 13:13:00,37.0,30.0,30.10,West,277,6.0,7.0,76,0.00,,,0.23,,2013-03-12 17:13:00,
2013-03-12 13:22:00,37.0,30.0,30.09,West,263,2.0,6.0,75,0.00,,,0.19,,2013-03-12 17:22:00,
2013-03-12 13:34:00,38.0,31.0,30.09,West,273,3.0,7.0,75,0.00,,,0.15,,2013-03-12 17:34:00,
2013-03-12 13:43:00,38.0,31.0,30.09,West,273,3.0,7.0,75,0.00,,,0.15,,2013-03-12 17:43:00,
2013-03-12 13:53:00,39.0,31.0,30.09,WSW,258,2.0,6.0,73,0.00,,,0.06,,2013-03-12 17:53:00,
2013-03-12 14:03:00,40.0,32.0,30.09,West,272,6.0,10.0,72,0.00,,,0.05,,2013-03-12 18:03:00,
2013-03-12 14:13:00,41.0,32.0,30.09,West,273,5.0,5.0,69,0.00,,,0.04,,2013-03-12 18:13:00,
2013-03-12 14:23:00,41.0,32.0,30.09,West,273,5.0,5.0,69,0.00,,,0.04,,2013-03-12 18:23:00,
2013-03-12 14:33:00,41.0,31.0,30.09,West,270,6.0,9.0,67,0.00,,,0.02,,2013-03-12 18:33:00,
2013-03-12 14:42:00,41.0,31.0,30.09,West,270,6.0,9.0,67,0.00,,,0.02,,2013-03-12 18:42:00,
2013-03-12 14:53:00,41.0,30.0,30.08,West,279,5.0,7.0,65,0.00,,,0.00,,2013-03-12 18:53:00,
2013-03-12 15:03:00,42.0,31.0,30.07,West,280,3.0,8.0,65,0.00,,,0.00,,2013-03-12 19:03:00,
2013-03-12 15:13:00,42.0,31.0,30.07,West,280,3.0,8.0,65,0.00,,,0.00,,2013-03-12 19:13:00,
2013-03-12 15:23:00,42.0,30.0,30.07,WSW,248,1.0,0.0,63,0.00,,,0.00,,2013-03-12 19:23:00,
2013-03-12 15:33:00,43.0,31.0,30.06,West,276,2.0,6.0,63,0.00,,,0.00,,2013-03-12 19:33:00,
2013-03-12 15:43:00,43.0,31.0,30.06,West,276,2.0,6.0,63,0.00,,,0.00,,2013-03-12 19:43:00,
2013-03-12 15:53:00,43.0,31.0,30.06,WSW,253,2.0,6.0,62,0.00,,,0.00,,2013-03-12 19:53:00,
2013-03-12 16:02:00,44.0,31.0,30.06,West,270,6.0,10.0,59,0.00,,,0.00,,2013-03-12 20:02:00,
2013-03-12 16:12:00,44.0,31.0,30.06,West,270,6.0,10.0,59,0.00,,,0.00,,2013-03-12 20:12:00,
2013-03-12 16:23:00,45.0,31.0,30.06,NW,315,3.0,14.0,58,0.00,,,0.00,,2013-03-12 20:23:00,
2013-03-12 16:32:00,45.0,31.0,30.06,West,266,6.0,9.0,58,0.00,,,0.00,,2013-03-12 20:32:00,
2013-03-12 16:42:00,45.0,31.0,30.06,West,266,6.0,9.0,58,0.00,,,0.00,,2013-03-12 20:42:00,
2013-03-12 16:53:00,45.0,30.0,30.05,West,264,6.0,6.0,55,0.00,,,0.00,,2013-03-12 20:53:00,
2013-03-12 17:02:00,46.0,31.0,30.05,WNW,285,5.0,6.0,55,0.00,,,0.00,,2013-03-12 21:02:00,
2013-03-12 17:13:00,46.0,31.0,30.05,WNW,285,5.0,6.0,55,0.00,,,0.00,,2013-03-12 21:13:00,
2013-03-12 17:22:00,46.0,30.0,30.05,WSW,243,3.0,8.0,53,0.00,,,0.00,,2013-03-12 21:22:00,
2013-03-12 17:33:00,46.0,29.0,30.05,West,271,7.0,9.0,52,0.00,,,0.00,,2013-03-12 21:33:00,
2013-03-12 17:43:00,46.0,29.0,30.05,West,271,7.0,9.0,52,0.00,,,0.00,,2013-03-12 21:43:00,
2013-03-12 17:53:00,46.0,28.0,30.04,NNW,338,1.0,5.0,50,0.00,,,0.00,,2013-03-12 21:53:00,
2013-03-12 18:02:00,46.0,28.0,30.04,West,270,1.0,3.0,50,0.00,,,0.00,,2013-03-12 22:02:00,
2013-03-12 18:12:00,46.0,28.0,30.04,West,270,1.0,3.0,50,0.00,,,0.00,,2013-03-12 22:12:00,
2013-03-12 18:22:00,46.0,28.0,30.05,WSW,241,1.0,3.0,49,0.00,,,0.00,,2013-03-12 22:22:00,
2013-03-12 18:33:00,45.0,27.0,30.04,West,266,6.0,9.0,49,0.00,,,0.00,,2013-03-12 22:33:00,
2013-03-12 18:43:00,45.0,27.0,30.04,West,266,6.0,9.0,49,0.00,,,0.00,,2013-03-12 22:43:00,
2013-03-12 18:53:00,45.0,27.0,30.05,West,260,2.0,6.0,49,0.00,,,0.00,,2013-03-12 22:53:00,
2013-03-12 19:02:00,45.0,27.0,30.05,West,271,7.0,8.0,48,0.00,,,0.00,,2013-03-12 23:02:00,
2013-03-12 19:12:00,45.0,27.0,30.05,West,271,7.0,8.0,48,0.00,,,0.00,,2013-03-12 23:12:00,
2013-03-12 19:22:00,45.0,27.0,30.05,West,279,2.0,6.0,49,0.00,,,0.00,,2013-03-12 23:22:00,
2013-03-12 19:34:00,44.0,26.0,30.05,West,279,3.0,7.0,49,0.00,,,0.00,,2013-03-12 23:34:00,
2013-03-12 19:43:00,44.0,26.0,30.05,West,279,3.0,7.0,49,0.00,,,0.00,,2013-03-12 23:43:00,
2013-03-12 19:52:00,44.0,27.0,30.06,West,271,0.0,2.0,50,0.00,,,0.00,,2013-03-12 23:52:00,
2013-03-12 20:03:00,43.0,27.0,30.06,West,271,0.0,0.0,52,0.00,,,0.00,,2013-03-13 00:03:00,
2013-03-12 20:12:00,43.0,27.0,30.06,West,271,0.0,0.0,52,0.00,,,0.00,,2013-03-13 00:12:00,
2013-03-12 20:23:00,43.0,27.0,30.07,WSW,252,1.0,2.0,53,0.00,,,0.00,,2013-03-13 00:23:00,
2013-03-12 20:33:00,43.0,27.0,30.08,WNW,294,0.0,3.0,53,0.00,,,0.00,,2013-03-13 00:33:00,
2013-03-12 20:42:00,43.0,27.0,30.08,WNW,294,0.0,3.0,53,0.00,,,0.00,,2013-03-13 00:42:00,
2013-03-12 20:53:00,43.0,28.0,30.08,WNW,294,0.0,3.0,54,0.00,,,0.00,,2013-03-13 00:53:00,
2013-03-12 21:03:00,42.0,26.0,30.09,NW,315,9.0,12.0,52,0.00,,,0.00,,2013-03-13 01:03:00,
2013-03-12 21:12:00,42.0,26.0,30.09,NW,315,9.0,12.0,52,0.00,,,0.00,,2013-03-13 01:12:00,
2013-03-12 21:22:00,42.0,26.0,30.09,NW,318,0.0,0.0,53,0.00,,,0.00,,2013-03-13 01:22:00,
2013-03-12 21:32:00,41.0,26.0,30.09,NW,316,0.0,0.0,54,0.00,,,0.00,,2013-03-13 01:32:00,
2013-03-12 21:42:00,41.0,26.0,30.09,NW,316,0.0,0.0,54,0.00,,,0.00,,2013-03-13 01:42:00,
2013-03-12 21:53:00,40.0,26.0,30.10,NW,316,0.0,0.0,56,0.00,,,0.00,,2013-03-13 01:53:00,
2013-03-12 22:02:00,40.0,26.0,30.09,WNW,288,0.0,0.0,57,0.00,,,0.00,,2013-03-13 02:02:00,
2013-03-12 22:12:00,40.0,26.0,30.09,WNW,288,0.0,0.0,57,0.00,,,0.00,,2013-03-13 02:12:00,
2013-03-12 22:22:00,39.0,25.0,30.09,WNW,288,0.0,0.0,58,0.00,,,0.00,,2013-03-13 02:22:00,
2013-03-12 22:32:00,38.0,25.0,30.09,NW,306,2.0,5.0,58,0.00,,,0.00,,2013-03-13 02:32:00,
2013-03-12 22:43:00,38.0,25.0,30.09,NW,306,2.0,5.0,58,0.00,,,0.00,,2013-03-13 02:43:00,
2013-03-12 22:53:00,38.0,25.0,30.11,NW,304,0.0,6.0,59,0.00,,,0.00,,2013-03-13 02:53:00,
2013-03-12 23:02:00,38.0,28.0,30.13,NNW,341,7.0,8.0,66,0.00,,,0.00,,2013-03-13 03:02:00,
2013-03-12 23:12:00,38.0,28.0,30.13,NNW,341,7.0,8.0,66,0.00,,,0.00,,2013-03-13 03:12:00,
2013-03-12 23:22:00,36.0,30.0,30.13,NW,319,3.0,5.0,78,0.00,,,0.00,,2013-03-13 03:22:00,
2013-03-12 23:32:00,35.0,29.0,30.13,NNW,345,2.0,6.0,79,0.00,,,0.00,,2013-03-13 03:32:00,
2013-03-12 23:42:00,35.0,29.0,30.13,NNW,345,2.0,6.0,79,0.00,,,0.00,,2013-03-13 03:42:00,
2013-03-12 23:53:00,35.0,30.0,30.13,WNW,290,1.0,6.0,82,0.01,,,0.01,,2013-03-13 03:53:00,